Station Historical Data
Daily Summary for February 4, 2017 Units:  Both    English   Metric
« Previous Day
Next Day »
Daily Weekly Monthly Yearly Custom
  High: Low: Average:
Temperature: 27.9 °F /  -2.3 °C 15.4 °F /  -9.2 °C 22.4 °F /  -5.3 °C
Dew Point: 19.6 °F /  -6.9 °C 6.8 °F /  -14 °C 12.7 °F /  -10.7 °C
Humidity: 73% 56% 66%
Wind Speed: 19.0mph /  30.6km/h - 6.9mph /  11.1km/h
Wind Gust: 29.0mph /  46.7km/h - -
Wind- - WSW
Pressure: 30.40 in /  1029.3 hPa 30.11 in /  1019.5 hPa -
Precipitation: 0.00 in /  0 mm    
Historical Graphs
 
 
Tabular Data for February 4, 2017
Time Temperature Dew Point Pressure Wind Wind Speed Wind Gust Humidity Rainfall Rate (Hourly)
00:04 18.4 °F /  -7.6 °C 8.9 °F /  -12.8 °C 30.36in /  1028hPa SW 7.0mph /  11.3km/h 14.0mph /  22.5km/h 66% 0.00in /  0mm
00:09 18.5 °F /  -7.5 °C 9.0 °F /  -12.8 °C 30.35in /  1027.7hPa WSW 9.0mph /  14.5km/h 13.0mph /  20.9km/h 66% 0.00in /  0mm
00:14 18.6 °F /  -7.4 °C 8.8 °F /  -12.9 °C 30.35in /  1027.7hPa West 5.0mph /  8km/h 14.0mph /  22.5km/h 65% 0.00in /  0mm
00:19 18.6 °F /  -7.4 °C 8.8 °F /  -12.9 °C 30.35in /  1027.7hPa SW 12.0mph /  19.3km/h 21.0mph /  33.8km/h 65% 0.00in /  0mm
00:24 18.7 °F /  -7.4 °C 8.9 °F /  -12.8 °C 30.35in /  1027.7hPa West 5.0mph /  8km/h 15.0mph /  24.1km/h 65% 0.00in /  0mm
00:29 18.7 °F /  -7.4 °C 8.9 °F /  -12.8 °C 30.35in /  1027.7hPa West 8.0mph /  12.9km/h 18.0mph /  29km/h 65% 0.00in /  0mm
00:34 18.7 °F /  -7.4 °C 8.9 °F /  -12.8 °C 30.35in /  1027.7hPa West 7.0mph /  11.3km/h 18.0mph /  29km/h 65% 0.00in /  0mm
00:39 18.8 °F /  -7.3 °C 8.6 °F /  -13 °C 30.35in /  1027.7hPa WSW 6.0mph /  9.7km/h 13.0mph /  20.9km/h 64% 0.00in /  0mm
00:44 18.9 °F /  -7.3 °C 8.7 °F /  -12.9 °C 30.36in /  1028hPa West 6.0mph /  9.7km/h 14.0mph /  22.5km/h 64% 0.00in /  0mm
00:49 18.9 °F /  -7.3 °C 8.7 °F /  -12.9 °C 30.36in /  1028hPa West 7.0mph /  11.3km/h 16.0mph /  25.7km/h 64% 0.00in /  0mm
00:54 19.0 °F /  -7.2 °C 8.5 °F /  -13.1 °C 30.36in /  1028hPa West 8.0mph /  12.9km/h 17.0mph /  27.4km/h 63% 0.00in /  0mm
00:59 19.0 °F /  -7.2 °C 8.5 °F /  -13.1 °C 30.36in /  1028hPa West 9.0mph /  14.5km/h 11.0mph /  17.7km/h 63% 0.00in /  0mm
01:04 19.0 °F /  -7.2 °C 8.5 °F /  -13.1 °C 30.36in /  1028hPa WSW 7.0mph /  11.3km/h 13.0mph /  20.9km/h 63% 0.00in /  0mm
01:09 18.9 °F /  -7.3 °C 8.4 °F /  -13.1 °C 30.36in /  1028hPa WSW 9.0mph /  14.5km/h 17.0mph /  27.4km/h 63% 0.00in /  0mm
01:14 19.0 °F /  -7.2 °C 8.5 °F /  -13.1 °C 30.36in /  1028hPa WSW 4.0mph /  6.4km/h 17.0mph /  27.4km/h 63% 0.00in /  0mm
01:19 19.0 °F /  -7.2 °C 8.5 °F /  -13.1 °C 30.36in /  1028hPa WSW 10.0mph /  16.1km/h 13.0mph /  20.9km/h 63% 0.00in /  0mm
01:24 19.0 °F /  -7.2 °C 8.5 °F /  -13.1 °C 30.36in /  1028hPa WSW 7.0mph /  11.3km/h 16.0mph /  25.7km/h 63% 0.00in /  0mm
01:29 19.0 °F /  -7.2 °C 8.5 °F /  -13.1 °C 30.36in /  1028hPa West 9.0mph /  14.5km/h 12.0mph /  19.3km/h 63% 0.00in /  0mm
01:34 19.0 °F /  -7.2 °C 8.8 °F /  -12.9 °C 30.36in /  1028hPa West 6.0mph /  9.7km/h 12.0mph /  19.3km/h 64% 0.00in /  0mm
01:39 19.0 °F /  -7.2 °C 8.5 °F /  -13.1 °C 30.35in /  1027.7hPa West 6.0mph /  9.7km/h 14.0mph /  22.5km/h 63% 0.00in /  0mm
01:44 19.0 °F /  -7.2 °C 8.5 °F /  -13.1 °C 30.35in /  1027.7hPa West 7.0mph /  11.3km/h 14.0mph /  22.5km/h 63% 0.00in /  0mm
01:49 19.0 °F /  -7.2 °C 8.5 °F /  -13.1 °C 30.35in /  1027.7hPa West 7.0mph /  11.3km/h 14.0mph /  22.5km/h 63% 0.00in /  0mm
01:54 19.1 °F /  -7.2 °C 8.2 °F /  -13.2 °C 30.35in /  1027.7hPa West 8.0mph /  12.9km/h 15.0mph /  24.1km/h 62% 0.00in /  0mm
01:59 19.0 °F /  -7.2 °C 8.5 °F /  -13.1 °C 30.36in /  1028hPa West 8.0mph /  12.9km/h 12.0mph /  19.3km/h 63% 0.00in /  0mm
02:04 19.0 °F /  -7.2 °C 8.1 °F /  -13.3 °C 30.35in /  1027.7hPa West 7.0mph /  11.3km/h 14.0mph /  22.5km/h 62% 0.00in /  0mm
02:09 18.8 °F /  -7.3 °C 7.9 °F /  -13.4 °C 30.36in /  1028hPa West 7.0mph /  11.3km/h 16.0mph /  25.7km/h 62% 0.00in /  0mm
02:14 18.6 °F /  -7.4 °C 7.7 °F /  -13.5 °C 30.36in /  1028hPa SW 7.0mph /  11.3km/h 10.0mph /  16.1km/h 62% 0.00in /  0mm
02:19 18.5 °F /  -7.5 °C 7.6 °F /  -13.6 °C 30.36in /  1028hPa WSW 3.0mph /  4.8km/h 17.0mph /  27.4km/h 62% 0.00in /  0mm
02:24 18.5 °F /  -7.5 °C 7.6 °F /  -13.6 °C 30.36in /  1028hPa WNW 9.0mph /  14.5km/h 14.0mph /  22.5km/h 62% 0.00in /  0mm
02:29 18.5 °F /  -7.5 °C 7.6 °F /  -13.6 °C 30.36in /  1028hPa WSW 8.0mph /  12.9km/h 15.0mph /  24.1km/h 62% 0.00in /  0mm
02:34 18.6 °F /  -7.4 °C 7.7 °F /  -13.5 °C 30.36in /  1028hPa West 9.0mph /  14.5km/h 14.0mph /  22.5km/h 62% 0.00in /  0mm
02:39 18.5 °F /  -7.5 °C 7.6 °F /  -13.6 °C 30.36in /  1028hPa WSW 7.0mph /  11.3km/h 14.0mph /  22.5km/h 62% 0.00in /  0mm
02:44 18.5 °F /  -7.5 °C 7.6 °F /  -13.6 °C 30.36in /  1028hPa WSW 7.0mph /  11.3km/h 16.0mph /  25.7km/h 62% 0.00in /  0mm
02:49 18.5 °F /  -7.5 °C 7.6 °F /  -13.6 °C 30.36in /  1028hPa West 7.0mph /  11.3km/h 16.0mph /  25.7km/h 62% 0.00in /  0mm
02:54 18.5 °F /  -7.5 °C 7.6 °F /  -13.6 °C 30.36in /  1028hPa West 7.0mph /  11.3km/h 15.0mph /  24.1km/h 62% 0.00in /  0mm
02:59 18.4 °F /  -7.6 °C 7.5 °F /  -13.6 °C 30.36in /  1028hPa WSW 7.0mph /  11.3km/h 15.0mph /  24.1km/h 62% 0.00in /  0mm
03:04 18.4 °F /  -7.6 °C 7.5 °F /  -13.6 °C 30.36in /  1028hPa SW 6.0mph /  9.7km/h 14.0mph /  22.5km/h 62% 0.00in /  0mm
03:09 18.3 °F /  -7.6 °C 7.4 °F /  -13.7 °C 30.36in /  1028hPa West 7.0mph /  11.3km/h 11.0mph /  17.7km/h 62% 0.00in /  0mm
03:14 18.3 °F /  -7.6 °C 7.4 °F /  -13.7 °C 30.36in /  1028hPa WSW 7.0mph /  11.3km/h 15.0mph /  24.1km/h 62% 0.00in /  0mm
03:19 18.2 °F /  -7.7 °C 7.3 °F /  -13.7 °C 30.36in /  1028hPa West 11.0mph /  17.7km/h 15.0mph /  24.1km/h 62% 0.00in /  0mm
03:24 18.2 °F /  -7.7 °C 7.3 °F /  -13.7 °C 30.36in /  1028hPa West 8.0mph /  12.9km/h 14.0mph /  22.5km/h 62% 0.00in /  0mm
03:29 18.1 °F /  -7.7 °C 7.3 °F /  -13.7 °C 30.36in /  1028hPa WSW 7.0mph /  11.3km/h 19.0mph /  30.6km/h 62% 0.00in /  0mm
03:34 18.0 °F /  -7.8 °C 7.2 °F /  -13.8 °C 30.36in /  1028hPa WSW 3.0mph /  4.8km/h 14.0mph /  22.5km/h 62% 0.00in /  0mm
03:39 18.1 °F /  -7.7 °C 7.3 °F /  -13.7 °C 30.36in /  1028hPa WSW 6.0mph /  9.7km/h 14.0mph /  22.5km/h 62% 0.00in /  0mm
03:44 18.1 °F /  -7.7 °C 7.3 °F /  -13.7 °C 30.37in /  1028.3hPa WSW 8.0mph /  12.9km/h 17.0mph /  27.4km/h 62% 0.00in /  0mm
03:49 18.0 °F /  -7.8 °C 7.2 °F /  -13.8 °C 30.36in /  1028hPa WSW 7.0mph /  11.3km/h 17.0mph /  27.4km/h 62% 0.00in /  0mm
03:54 17.9 °F /  -7.8 °C 7.1 °F /  -13.8 °C 30.36in /  1028hPa WSW 6.0mph /  9.7km/h 16.0mph /  25.7km/h 62% 0.00in /  0mm
03:59 17.8 °F /  -7.9 °C 7.0 °F /  -13.9 °C 30.36in /  1028hPa WSW 7.0mph /  11.3km/h 16.0mph /  25.7km/h 62% 0.00in /  0mm
04:04 17.7 °F /  -7.9 °C 6.9 °F /  -13.9 °C 30.37in /  1028.3hPa WSW 6.0mph /  9.7km/h 16.0mph /  25.7km/h 62% 0.00in /  0mm
04:09 17.5 °F /  -8.1 °C 7.0 °F /  -13.9 °C 30.37in /  1028.3hPa WSW 5.0mph /  8km/h 11.0mph /  17.7km/h 63% 0.00in /  0mm
04:14 17.6 °F /  -8 °C 6.8 °F /  -14 °C 30.37in /  1028.3hPa West 3.0mph /  4.8km/h 12.0mph /  19.3km/h 62% 0.00in /  0mm
04:19 17.6 °F /  -8 °C 7.1 °F /  -13.8 °C 30.37in /  1028.3hPa West 10.0mph /  16.1km/h 13.0mph /  20.9km/h 63% 0.00in /  0mm
04:24 17.6 °F /  -8 °C 7.1 °F /  -13.8 °C 30.37in /  1028.3hPa WSW 6.0mph /  9.7km/h 10.0mph /  16.1km/h 63% 0.00in /  0mm
04:29 17.3 °F /  -8.2 °C 6.8 °F /  -14 °C 30.36in /  1028hPa SW 6.0mph /  9.7km/h 8.0mph /  12.9km/h 63% 0.00in /  0mm
04:34 17.2 °F /  -8.2 °C 7.1 °F /  -13.8 °C 30.37in /  1028.3hPa WSW 4.0mph /  6.4km/h 11.0mph /  17.7km/h 64% 0.00in /  0mm
04:39 17.1 °F /  -8.3 °C 7.0 °F /  -13.9 °C 30.37in /  1028.3hPa West 4.0mph /  6.4km/h 10.0mph /  16.1km/h 64% 0.00in /  0mm
04:44 17.0 °F /  -8.3 °C 6.9 °F /  -13.9 °C 30.37in /  1028.3hPa West 6.0mph /  9.7km/h 11.0mph /  17.7km/h 64% 0.00in /  0mm
04:49 17.0 °F /  -8.3 °C 7.3 °F /  -13.7 °C 30.37in /  1028.3hPa West 5.0mph /  8km/h 11.0mph /  17.7km/h 65% 0.00in /  0mm
04:54 17.1 °F /  -8.3 °C 7.3 °F /  -13.7 °C 30.37in /  1028.3hPa West 5.0mph /  8km/h 11.0mph /  17.7km/h 65% 0.00in /  0mm
04:59 17.0 °F /  -8.3 °C 7.3 °F /  -13.7 °C 30.37in /  1028.3hPa West 5.0mph /  8km/h 10.0mph /  16.1km/h 65% 0.00in /  0mm
05:04 16.9 °F /  -8.4 °C 7.2 °F /  -13.8 °C 30.37in /  1028.3hPa West 4.0mph /  6.4km/h 11.0mph /  17.7km/h 65% 0.00in /  0mm
05:09 17.1 °F /  -8.3 °C 7.3 °F /  -13.7 °C 30.37in /  1028.3hPa West 5.0mph /  8km/h 13.0mph /  20.9km/h 65% 0.00in /  0mm
05:14 17.0 °F /  -8.3 °C 7.3 °F /  -13.7 °C 30.38in /  1028.7hPa West 3.0mph /  4.8km/h 12.0mph /  19.3km/h 65% 0.00in /  0mm
05:19 17.1 °F /  -8.3 °C 7.3 °F /  -13.7 °C 30.38in /  1028.7hPa West 6.0mph /  9.7km/h 12.0mph /  19.3km/h 65% 0.00in /  0mm
05:24 16.9 °F /  -8.4 °C 7.5 °F /  -13.6 °C 30.38in /  1028.7hPa WSW 1.0mph /  1.6km/h 7.0mph /  11.3km/h 66% 0.00in /  0mm
05:29 16.9 °F /  -8.4 °C 7.5 °F /  -13.6 °C 30.38in /  1028.7hPa WNW 7.0mph /  11.3km/h 9.0mph /  14.5km/h 66% 0.00in /  0mm
05:34 16.8 °F /  -8.4 °C 7.4 °F /  -13.7 °C 30.38in /  1028.7hPa NW 6.0mph /  9.7km/h 13.0mph /  20.9km/h 66% 0.00in /  0mm
05:39 16.7 °F /  -8.5 °C 7.3 °F /  -13.7 °C 30.38in /  1028.7hPa SSW 3.0mph /  4.8km/h 10.0mph /  16.1km/h 66% 0.00in /  0mm
05:44 16.7 °F /  -8.5 °C 7.3 °F /  -13.7 °C 30.38in /  1028.7hPa WNW 3.0mph /  4.8km/h 11.0mph /  17.7km/h 66% 0.00in /  0mm
05:49 16.4 °F /  -8.7 °C 7.3 °F /  -13.7 °C 30.38in /  1028.7hPa WNW 4.0mph /  6.4km/h 8.0mph /  12.9km/h 67% 0.00in /  0mm
05:54 16.4 °F /  -8.7 °C 7.3 °F /  -13.7 °C 30.38in /  1028.7hPa West 5.0mph /  8km/h 10.0mph /  16.1km/h 67% 0.00in /  0mm
05:59 16.1 °F /  -8.8 °C 7.1 °F /  -13.8 °C 30.38in /  1028.7hPa West 5.0mph /  8km/h 10.0mph /  16.1km/h 67% 0.00in /  0mm
06:04 16.1 °F /  -8.8 °C 7.1 °F /  -13.8 °C 30.38in /  1028.7hPa West 4.0mph /  6.4km/h 10.0mph /  16.1km/h 67% 0.00in /  0mm
06:09 15.9 °F /  -8.9 °C 6.9 °F /  -13.9 °C 30.38in /  1028.7hPa West 4.0mph /  6.4km/h 11.0mph /  17.7km/h 67% 0.00in /  0mm
06:14 15.8 °F /  -9 °C 7.1 °F /  -13.8 °C 30.38in /  1028.7hPa West 7.0mph /  11.3km/h 8.0mph /  12.9km/h 68% 0.00in /  0mm
06:19 15.8 °F /  -9 °C 7.1 °F /  -13.8 °C 30.38in /  1028.7hPa WNW 2.0mph /  3.2km/h 9.0mph /  14.5km/h 68% 0.00in /  0mm
06:24 15.8 °F /  -9 °C 7.1 °F /  -13.8 °C 30.38in /  1028.7hPa West 5.0mph /  8km/h 9.0mph /  14.5km/h 68% 0.00in /  0mm
06:29 15.7 °F /  -9.1 °C 7.0 °F /  -13.9 °C 30.38in /  1028.7hPa West 4.0mph /  6.4km/h 12.0mph /  19.3km/h 68% 0.00in /  0mm
06:34 15.8 °F /  -9 °C 7.1 °F /  -13.8 °C 30.38in /  1028.7hPa West 3.0mph /  4.8km/h 10.0mph /  16.1km/h 68% 0.00in /  0mm
06:39 15.6 °F /  -9.1 °C 7.2 °F /  -13.8 °C 30.38in /  1028.7hPa West 4.0mph /  6.4km/h 8.0mph /  12.9km/h 69% 0.00in /  0mm
06:44 15.6 °F /  -9.1 °C 7.2 °F /  -13.8 °C 30.38in /  1028.7hPa WSW 4.0mph /  6.4km/h 8.0mph /  12.9km/h 69% 0.00in /  0mm
06:49 15.5 °F /  -9.2 °C 7.1 °F /  -13.8 °C 30.38in /  1028.7hPa SW 3.0mph /  4.8km/h 7.0mph /  11.3km/h 69% 0.00in /  0mm
06:54 15.4 °F /  -9.2 °C 7.0 °F /  -13.9 °C 30.39in /  1029hPa West 5.0mph /  8km/h 7.0mph /  11.3km/h 69% 0.00in /  0mm
06:59 15.4 °F /  -9.2 °C 7.0 °F /  -13.9 °C 30.39in /  1029hPa West 4.0mph /  6.4km/h 10.0mph /  16.1km/h 69% 0.00in /  0mm
07:04 15.5 °F /  -9.2 °C 7.5 °F /  -13.6 °C 30.39in /  1029hPa West 4.0mph /  6.4km/h 11.0mph /  17.7km/h 70% 0.00in /  0mm
07:09 15.5 °F /  -9.2 °C 7.5 °F /  -13.6 °C 30.39in /  1029hPa West 4.0mph /  6.4km/h 11.0mph /  17.7km/h 70% 0.00in /  0mm
07:14 15.7 °F /  -9.1 °C 7.6 °F /  -13.6 °C 30.39in /  1029hPa West 5.0mph /  8km/h 10.0mph /  16.1km/h 70% 0.00in /  0mm
07:19 15.8 °F /  -9 °C 7.7 °F /  -13.5 °C 30.39in /  1029hPa West 5.0mph /  8km/h 10.0mph /  16.1km/h 70% 0.00in /  0mm
07:24 15.8 °F /  -9 °C 7.7 °F /  -13.5 °C 30.39in /  1029hPa WSW 5.0mph /  8km/h 10.0mph /  16.1km/h 70% 0.00in /  0mm
07:29 15.9 °F /  -8.9 °C 7.8 °F /  -13.4 °C 30.39in /  1029hPa West 6.0mph /  9.7km/h 12.0mph /  19.3km/h 70% 0.00in /  0mm
07:34 16.1 °F /  -8.8 °C 8.0 °F /  -13.3 °C 30.39in /  1029hPa West 5.0mph /  8km/h 10.0mph /  16.1km/h 70% 0.00in /  0mm
07:39 16.1 °F /  -8.8 °C 8.0 °F /  -13.3 °C 30.39in /  1029hPa West 3.0mph /  4.8km/h 10.0mph /  16.1km/h 70% 0.00in /  0mm
07:44 16.3 °F /  -8.7 °C 8.2 °F /  -13.2 °C 30.39in /  1029hPa WSW 4.0mph /  6.4km/h 8.0mph /  12.9km/h 70% 0.00in /  0mm
07:49 16.3 °F /  -8.7 °C 8.5 °F /  -13.1 °C 30.39in /  1029hPa West 2.0mph /  3.2km/h 7.0mph /  11.3km/h 71% 0.00in /  0mm
07:54 16.4 °F /  -8.7 °C 8.6 °F /  -13 °C 30.38in /  1028.7hPa West 2.0mph /  3.2km/h 7.0mph /  11.3km/h 71% 0.00in /  0mm
07:59 16.7 °F /  -8.5 °C 8.9 °F /  -12.8 °C 30.39in /  1029hPa West 7.0mph /  11.3km/h 8.0mph /  12.9km/h 71% 0.00in /  0mm
08:04 16.8 °F /  -8.4 °C 9.0 °F /  -12.8 °C 30.39in /  1029hPa West 4.0mph /  6.4km/h 10.0mph /  16.1km/h 71% 0.00in /  0mm
08:09 17.1 °F /  -8.3 °C 9.3 °F /  -12.6 °C 30.39in /  1029hPa West 5.0mph /  8km/h 11.0mph /  17.7km/h 71% 0.00in /  0mm
08:14 16.9 °F /  -8.4 °C 9.1 °F /  -12.7 °C 30.39in /  1029hPa West 5.0mph /  8km/h 11.0mph /  17.7km/h 71% 0.00in /  0mm
08:19 17.0 °F /  -8.3 °C 9.2 °F /  -12.7 °C 30.39in /  1029hPa West 5.0mph /  8km/h 11.0mph /  17.7km/h 71% 0.00in /  0mm
08:24 17.0 °F /  -8.3 °C 9.2 °F /  -12.7 °C 30.39in /  1029hPa WSW 3.0mph /  4.8km/h 10.0mph /  16.1km/h 71% 0.00in /  0mm
08:29 16.9 °F /  -8.4 °C 9.1 °F /  -12.7 °C 30.39in /  1029hPa WSW 3.0mph /  4.8km/h 10.0mph /  16.1km/h 71% 0.00in /  0mm
08:34 17.1 °F /  -8.3 °C 9.3 °F /  -12.6 °C 30.39in /  1029hPa WSW 4.0mph /  6.4km/h 14.0mph /  22.5km/h 71% 0.00in /  0mm
08:39 17.5 °F /  -8.1 °C 9.7 °F /  -12.4 °C 30.40in /  1029.3hPa West 6.0mph /  9.7km/h 14.0mph /  22.5km/h 71% 0.00in /  0mm
08:44 17.7 °F /  -7.9 °C 9.9 °F /  -12.3 °C 30.40in /  1029.3hPa West 6.0mph /  9.7km/h 11.0mph /  17.7km/h 71% 0.00in /  0mm
08:49 17.9 °F /  -7.8 °C 10.1 °F /  -12.2 °C 30.40in /  1029.3hPa SW 3.0mph /  4.8km/h 9.0mph /  14.5km/h 71% 0.00in /  0mm
08:54 18.0 °F /  -7.8 °C 10.2 °F /  -12.1 °C 30.40in /  1029.3hPa WSW 5.0mph /  8km/h 8.0mph /  12.9km/h 71% 0.00in /  0mm
08:59 18.1 °F /  -7.7 °C 10.3 °F /  -12.1 °C 30.39in /  1029hPa West 6.0mph /  9.7km/h 11.0mph /  17.7km/h 71% 0.00in /  0mm
09:04 18.4 °F /  -7.6 °C 10.6 °F /  -11.9 °C 30.39in /  1029hPa West 7.0mph /  11.3km/h 9.0mph /  14.5km/h 71% 0.00in /  0mm
09:09 18.4 °F /  -7.6 °C 10.9 °F /  -11.7 °C 30.39in /  1029hPa West 4.0mph /  6.4km/h 9.0mph /  14.5km/h 72% 0.00in /  0mm
09:14 18.7 °F /  -7.4 °C 11.2 °F /  -11.6 °C 30.40in /  1029.3hPa West 3.0mph /  4.8km/h 9.0mph /  14.5km/h 72% 0.00in /  0mm
09:19 18.9 °F /  -7.3 °C 11.4 °F /  -11.4 °C 30.40in /  1029.3hPa West 4.0mph /  6.4km/h 9.0mph /  14.5km/h 72% 0.00in /  0mm
09:24 19.2 °F /  -7.1 °C 12.0 °F /  -11.1 °C 30.40in /  1029.3hPa WNW 3.0mph /  4.8km/h 8.0mph /  12.9km/h 73% 0.00in /  0mm
09:29 19.7 °F /  -6.8 °C 12.1 °F /  -11.1 °C 30.40in /  1029.3hPa WSW 8.0mph /  12.9km/h 10.0mph /  16.1km/h 72% 0.00in /  0mm
09:34 20.1 °F /  -6.6 °C 12.5 °F /  -10.8 °C 30.40in /  1029.3hPa WSW 4.0mph /  6.4km/h 8.0mph /  12.9km/h 72% 0.00in /  0mm
09:39 20.6 °F /  -6.3 °C 12.7 °F /  -10.7 °C 30.40in /  1029.3hPa West 5.0mph /  8km/h 10.0mph /  16.1km/h 71% 0.00in /  0mm
09:44 21.2 °F /  -6 °C 13.3 °F /  -10.4 °C 30.39in /  1029hPa West 6.0mph /  9.7km/h 19.0mph /  30.6km/h 71% 0.00in /  0mm
09:49 21.8 °F /  -5.7 °C 13.5 °F /  -10.3 °C 30.39in /  1029hPa West 3.0mph /  4.8km/h 15.0mph /  24.1km/h 70% 0.00in /  0mm
09:54 22.0 °F /  -5.6 °C 13.7 °F /  -10.2 °C 30.39in /  1029hPa West 9.0mph /  14.5km/h 16.0mph /  25.7km/h 70% 0.00in /  0mm
09:59 22.4 °F /  -5.3 °C 13.8 °F /  -10.1 °C 30.39in /  1029hPa West 11.0mph /  17.7km/h 20.0mph /  32.2km/h 69% 0.00in /  0mm
10:04 22.8 °F /  -5.1 °C 13.8 °F /  -10.1 °C 30.39in /  1029hPa SW 14.0mph /  22.5km/h 19.0mph /  30.6km/h 68% 0.00in /  0mm
10:09 23.0 °F /  -5 °C 13.7 °F /  -10.2 °C 30.39in /  1029hPa West 10.0mph /  16.1km/h 19.0mph /  30.6km/h 67% 0.00in /  0mm
10:14 23.2 °F /  -4.9 °C 13.9 °F /  -10.1 °C 30.39in /  1029hPa West 9.0mph /  14.5km/h 19.0mph /  30.6km/h 67% 0.00in /  0mm
10:19 23.3 °F /  -4.8 °C 14.0 °F /  -10 °C 30.39in /  1029hPa West 8.0mph /  12.9km/h 17.0mph /  27.4km/h 67% 0.00in /  0mm
10:24 23.6 °F /  -4.7 °C 14.2 °F /  -9.9 °C 30.39in /  1029hPa WSW 9.0mph /  14.5km/h 17.0mph /  27.4km/h 67% 0.00in /  0mm
10:29 23.7 °F /  -4.6 °C 14.3 °F /  -9.8 °C 30.39in /  1029hPa WSW 9.0mph /  14.5km/h 17.0mph /  27.4km/h 67% 0.00in /  0mm
10:34 23.7 °F /  -4.6 °C 14.3 °F /  -9.8 °C 30.39in /  1029hPa WSW 10.0mph /  16.1km/h 16.0mph /  25.7km/h 67% 0.00in /  0mm
10:39 23.9 °F /  -4.5 °C 14.5 °F /  -9.7 °C 30.39in /  1029hPa WSW 10.0mph /  16.1km/h 22.0mph /  35.4km/h 67% 0.00in /  0mm
10:44 24.0 °F /  -4.4 °C 14.6 °F /  -9.7 °C 30.39in /  1029hPa WSW 11.0mph /  17.7km/h 22.0mph /  35.4km/h 67% 0.00in /  0mm
10:49 24.2 °F /  -4.3 °C 15.2 °F /  -9.3 °C 30.39in /  1029hPa SW 7.0mph /  11.3km/h 13.0mph /  20.9km/h 68% 0.00in /  0mm
10:54 24.3 °F /  -4.3 °C 15.3 °F /  -9.3 °C 30.38in /  1028.7hPa WNW 4.0mph /  6.4km/h 14.0mph /  22.5km/h 68% 0.00in /  0mm
10:59 24.3 °F /  -4.3 °C 14.9 °F /  -9.5 °C 30.38in /  1028.7hPa WSW 4.0mph /  6.4km/h 11.0mph /  17.7km/h 67% 0.00in /  0mm
11:04 24.5 °F /  -4.2 °C 15.4 °F /  -9.2 °C 30.38in /  1028.7hPa West 6.0mph /  9.7km/h 10.0mph /  16.1km/h 68% 0.00in /  0mm
11:09 24.6 °F /  -4.1 °C 15.2 °F /  -9.3 °C 30.37in /  1028.3hPa West 10.0mph /  16.1km/h 23.0mph /  37km/h 67% 0.00in /  0mm
11:14 24.7 °F /  -4.1 °C 14.9 °F /  -9.5 °C 30.37in /  1028.3hPa West 10.0mph /  16.1km/h 23.0mph /  37km/h 66% 0.00in /  0mm
11:19 24.8 °F /  -4 °C 14.7 °F /  -9.6 °C 30.37in /  1028.3hPa West 10.0mph /  16.1km/h 20.0mph /  32.2km/h 65% 0.00in /  0mm
11:24 24.9 °F /  -3.9 °C 14.8 °F /  -9.6 °C 30.37in /  1028.3hPa West 11.0mph /  17.7km/h 22.0mph /  35.4km/h 65% 0.00in /  0mm
11:29 25.0 °F /  -3.9 °C 14.9 °F /  -9.5 °C 30.37in /  1028.3hPa West 11.0mph /  17.7km/h 22.0mph /  35.4km/h 65% 0.00in /  0mm
11:34 25.4 °F /  -3.7 °C 15.6 °F /  -9.1 °C 30.36in /  1028hPa West 9.0mph /  14.5km/h 19.0mph /  30.6km/h 66% 0.00in /  0mm
11:39 25.4 °F /  -3.7 °C 15.6 °F /  -9.1 °C 30.36in /  1028hPa WSW 13.0mph /  20.9km/h 20.0mph /  32.2km/h 66% 0.00in /  0mm
11:44 25.5 °F /  -3.6 °C 15.7 °F /  -9.1 °C 30.36in /  1028hPa WSW 16.0mph /  25.7km/h 24.0mph /  38.6km/h 66% 0.00in /  0mm
11:49 25.4 °F /  -3.7 °C 15.6 °F /  -9.1 °C 30.35in /  1027.7hPa WSW 11.0mph /  17.7km/h 24.0mph /  38.6km/h 66% 0.00in /  0mm
11:54 25.8 °F /  -3.4 °C 16.7 °F /  -8.5 °C 30.35in /  1027.7hPa West 9.0mph /  14.5km/h 27.0mph /  43.5km/h 68% 0.00in /  0mm
11:59 25.8 °F /  -3.4 °C 16.3 °F /  -8.7 °C 30.35in /  1027.7hPa West 12.0mph /  19.3km/h 18.0mph /  29km/h 67% 0.00in /  0mm
12:04 26.3 °F /  -3.2 °C 16.8 °F /  -8.4 °C 30.34in /  1027.3hPa West 10.0mph /  16.1km/h 17.0mph /  27.4km/h 67% 0.00in /  0mm
12:09 26.2 °F /  -3.2 °C 16.7 °F /  -8.5 °C 30.34in /  1027.3hPa NNW 11.0mph /  17.7km/h 19.0mph /  30.6km/h 67% 0.00in /  0mm
12:14 26.3 °F /  -3.2 °C 17.2 °F /  -8.2 °C 30.33in /  1027hPa West 6.0mph /  9.7km/h 22.0mph /  35.4km/h 68% 0.00in /  0mm
12:19 26.4 °F /  -3.1 °C 17.3 °F /  -8.2 °C 30.33in /  1027hPa WSW 9.0mph /  14.5km/h 22.0mph /  35.4km/h 68% 0.00in /  0mm
12:24 26.6 °F /  -3 °C 17.5 °F /  -8.1 °C 30.33in /  1027hPa WSW 9.0mph /  14.5km/h 21.0mph /  33.8km/h 68% 0.00in /  0mm
12:29 26.7 °F /  -2.9 °C 17.9 °F /  -7.8 °C 30.33in /  1027hPa WSW 10.0mph /  16.1km/h 21.0mph /  33.8km/h 69% 0.00in /  0mm
12:34 26.5 °F /  -3.1 °C 17.7 °F /  -7.9 °C 30.33in /  1027hPa WSW 10.0mph /  16.1km/h 21.0mph /  33.8km/h 69% 0.00in /  0mm
12:39 26.6 °F /  -3 °C 17.8 °F /  -7.9 °C 30.32in /  1026.6hPa WSW 9.0mph /  14.5km/h 21.0mph /  33.8km/h 69% 0.00in /  0mm
12:44 26.4 °F /  -3.1 °C 17.3 °F /  -8.2 °C 30.32in /  1026.6hPa WSW 9.0mph /  14.5km/h 26.0mph /  41.8km/h 68% 0.00in /  0mm
12:49 26.5 °F /  -3.1 °C 17.0 °F /  -8.3 °C 30.32in /  1026.6hPa WSW 13.0mph /  20.9km/h 26.0mph /  41.8km/h 67% 0.00in /  0mm
12:54 26.9 °F /  -2.8 °C 16.7 °F /  -8.5 °C 30.32in /  1026.6hPa SW 11.0mph /  17.7km/h 25.0mph /  40.2km/h 65% 0.00in /  0mm
12:59 26.9 °F /  -2.8 °C 16.3 °F /  -8.7 °C 30.32in /  1026.6hPa SW 7.0mph /  11.3km/h 22.0mph /  35.4km/h 64% 0.00in /  0mm
13:04 27.2 °F /  -2.7 °C 17.0 °F /  -8.3 °C 30.32in /  1026.6hPa WSW 12.0mph /  19.3km/h 27.0mph /  43.5km/h 65% 0.00in /  0mm
13:09 27.7 °F /  -2.4 °C 16.4 °F /  -8.7 °C 30.31in /  1026.3hPa West 16.0mph /  25.7km/h 24.0mph /  38.6km/h 62% 0.00in /  0mm
13:14 27.8 °F /  -2.3 °C 16.8 °F /  -8.4 °C 30.31in /  1026.3hPa South 10.0mph /  16.1km/h 20.0mph /  32.2km/h 63% 0.00in /  0mm
13:19 27.9 °F /  -2.3 °C 17.3 °F /  -8.2 °C 30.32in /  1026.6hPa West 19.0mph /  30.6km/h 29.0mph /  46.7km/h 64% 0.00in /  0mm
13:24 27.4 °F /  -2.6 °C 17.2 °F /  -8.2 °C 30.31in /  1026.3hPa WSW 13.0mph /  20.9km/h 29.0mph /  46.7km/h 65% 0.00in /  0mm
13:29 27.7 °F /  -2.4 °C 17.1 °F /  -8.3 °C 30.31in /  1026.3hPa WSW 13.0mph /  20.9km/h 27.0mph /  43.5km/h 64% 0.00in /  0mm
13:34 27.1 °F /  -2.7 °C 16.5 °F /  -8.6 °C 30.31in /  1026.3hPa WSW 13.0mph /  20.9km/h 27.0mph /  43.5km/h 64% 0.00in /  0mm
13:39 26.9 °F /  -2.8 °C 16.3 °F /  -8.7 °C 30.31in /  1026.3hPa WSW 13.0mph /  20.9km/h 26.0mph /  41.8km/h 64% 0.00in /  0mm
13:44 27.0 °F /  -2.8 °C 16.4 °F /  -8.7 °C 30.31in /  1026.3hPa WSW 12.0mph /  19.3km/h 22.0mph /  35.4km/h 64% 0.00in /  0mm
13:49 26.9 °F /  -2.8 °C 16.7 °F /  -8.5 °C 30.31in /  1026.3hPa WSW 12.0mph /  19.3km/h 21.0mph /  33.8km/h 65% 0.00in /  0mm
13:54 27.1 °F /  -2.7 °C 16.5 °F /  -8.6 °C 30.31in /  1026.3hPa WSW 7.0mph /  11.3km/h 22.0mph /  35.4km/h 64% 0.00in /  0mm
13:59 27.4 °F /  -2.6 °C 16.4 °F /  -8.7 °C 30.30in /  1026hPa SW 12.0mph /  19.3km/h 21.0mph /  33.8km/h 63% 0.00in /  0mm
14:04 27.8 °F /  -2.3 °C 16.8 °F /  -8.4 °C 30.30in /  1026hPa WNW 18.0mph /  29km/h 24.0mph /  38.6km/h 63% 0.00in /  0mm
14:09 27.9 °F /  -2.3 °C 16.9 °F /  -8.4 °C 30.30in /  1026hPa West 6.0mph /  9.7km/h 22.0mph /  35.4km/h 63% 0.00in /  0mm
14:14 27.2 °F /  -2.7 °C 16.6 °F /  -8.6 °C 30.30in /  1026hPa WSW 18.0mph /  29km/h 22.0mph /  35.4km/h 64% 0.00in /  0mm
14:19 27.0 °F /  -2.8 °C 16.4 °F /  -8.7 °C 30.30in /  1026hPa WNW 12.0mph /  19.3km/h 22.0mph /  35.4km/h 64% 0.00in /  0mm
14:24 27.5 °F /  -2.5 °C 17.3 °F /  -8.2 °C 30.30in /  1026hPa SSW 15.0mph /  24.1km/h 25.0mph /  40.2km/h 65% 0.00in /  0mm
14:29 27.9 °F /  -2.3 °C 16.9 °F /  -8.4 °C 30.30in /  1026hPa WSW 13.0mph /  20.9km/h 25.0mph /  40.2km/h 63% 0.00in /  0mm
14:34 27.8 °F /  -2.3 °C 17.2 °F /  -8.2 °C 30.30in /  1026hPa WSW 11.0mph /  17.7km/h 25.0mph /  40.2km/h 64% 0.00in /  0mm
14:39 27.4 °F /  -2.6 °C 16.4 °F /  -8.7 °C 30.30in /  1026hPa WSW 12.0mph /  19.3km/h 25.0mph /  40.2km/h 63% 0.00in /  0mm
14:44 27.2 °F /  -2.7 °C 17.0 °F /  -8.3 °C 30.29in /  1025.6hPa WSW 13.0mph /  20.9km/h 26.0mph /  41.8km/h 65% 0.00in /  0mm
14:49 26.9 °F /  -2.8 °C 16.7 °F /  -8.5 °C 30.30in /  1026hPa SSW 13.0mph /  20.9km/h 24.0mph /  38.6km/h 65% 0.00in /  0mm
14:54 26.7 °F /  -2.9 °C 17.2 °F /  -8.2 °C 30.30in /  1026hPa WSW 17.0mph /  27.4km/h 23.0mph /  37km/h 67% 0.00in /  0mm
14:59 26.7 °F /  -2.9 °C 17.6 °F /  -8 °C 30.30in /  1026hPa WSW 13.0mph /  20.9km/h 24.0mph /  38.6km/h 68% 0.00in /  0mm
15:04 27.0 °F /  -2.8 °C 17.5 °F /  -8.1 °C 30.29in /  1025.6hPa WSW 11.0mph /  17.7km/h 26.0mph /  41.8km/h 67% 0.00in /  0mm
15:09 27.1 °F /  -2.7 °C 17.2 °F /  -8.2 °C 30.29in /  1025.6hPa SW 10.0mph /  16.1km/h 24.0mph /  38.6km/h 66% 0.00in /  0mm
15:14 27.2 °F /  -2.7 °C 17.7 °F /  -7.9 °C 30.29in /  1025.6hPa SW 10.0mph /  16.1km/h 19.0mph /  30.6km/h 67% 0.00in /  0mm
15:19 26.9 °F /  -2.8 °C 17.4 °F /  -8.1 °C 30.29in /  1025.6hPa West 13.0mph /  20.9km/h 20.0mph /  32.2km/h 67% 0.00in /  0mm
15:24 27.2 °F /  -2.7 °C 17.7 °F /  -7.9 °C 30.29in /  1025.6hPa WSW 12.0mph /  19.3km/h 24.0mph /  38.6km/h 67% 0.00in /  0mm
15:29 27.5 °F /  -2.5 °C 18.3 °F /  -7.6 °C 30.29in /  1025.6hPa WSW 9.0mph /  14.5km/h 20.0mph /  32.2km/h 68% 0.00in /  0mm
15:34 27.7 °F /  -2.4 °C 18.5 °F /  -7.5 °C 30.28in /  1025.3hPa WSW 9.0mph /  14.5km/h 20.0mph /  32.2km/h 68% 0.00in /  0mm
15:39 27.2 °F /  -2.7 °C 17.7 °F /  -7.9 °C 30.28in /  1025.3hPa WSW 10.0mph /  16.1km/h 19.0mph /  30.6km/h 67% 0.00in /  0mm
15:44 27.2 °F /  -2.7 °C 18.0 °F /  -7.8 °C 30.28in /  1025.3hPa WSW 11.0mph /  17.7km/h 20.0mph /  32.2km/h 68% 0.00in /  0mm
15:49 26.9 °F /  -2.8 °C 17.7 °F /  -7.9 °C 30.28in /  1025.3hPa SW 9.0mph /  14.5km/h 19.0mph /  30.6km/h 68% 0.00in /  0mm
15:54 27.1 °F /  -2.7 °C 17.9 °F /  -7.8 °C 30.28in /  1025.3hPa SW 13.0mph /  20.9km/h 20.0mph /  32.2km/h 68% 0.00in /  0mm
15:59 27.0 °F /  -2.8 °C 17.8 °F /  -7.9 °C 30.28in /  1025.3hPa West 14.0mph /  22.5km/h 20.0mph /  32.2km/h 68% 0.00in /  0mm
16:04 26.9 °F /  -2.8 °C 17.7 °F /  -7.9 °C 30.28in /  1025.3hPa West 11.0mph /  17.7km/h 23.0mph /  37km/h 68% 0.00in /  0mm
16:09 27.2 °F /  -2.7 °C 18.0 °F /  -7.8 °C 30.27in /  1024.9hPa WSW 10.0mph /  16.1km/h 23.0mph /  37km/h 68% 0.00in /  0mm
16:14 27.0 °F /  -2.8 °C 18.2 °F /  -7.7 °C 30.27in /  1024.9hPa WSW 10.0mph /  16.1km/h 26.0mph /  41.8km/h 69% 0.00in /  0mm
16:19 27.0 °F /  -2.8 °C 18.5 °F /  -7.5 °C 30.27in /  1024.9hPa WSW 9.0mph /  14.5km/h 19.0mph /  30.6km/h 70% 0.00in /  0mm
16:24 26.9 °F /  -2.8 °C 18.4 °F /  -7.6 °C 30.27in /  1024.9hPa SW 8.0mph /  12.9km/h 18.0mph /  29km/h 70% 0.00in /  0mm
16:29 26.9 °F /  -2.8 °C 18.7 °F /  -7.4 °C 30.27in /  1024.9hPa SSW 13.0mph /  20.9km/h 16.0mph /  25.7km/h 71% 0.00in /  0mm
16:34 27.0 °F /  -2.8 °C 19.2 °F /  -7.1 °C 30.26in /  1024.6hPa WSW 12.0mph /  19.3km/h 16.0mph /  25.7km/h 72% 0.00in /  0mm
16:39 27.0 °F /  -2.8 °C 19.2 °F /  -7.1 °C 30.26in /  1024.6hPa WSW 9.0mph /  14.5km/h 18.0mph /  29km/h 72% 0.00in /  0mm
16:44 27.1 °F /  -2.7 °C 19.6 °F /  -6.9 °C 30.26in /  1024.6hPa WSW 9.0mph /  14.5km/h 18.0mph /  29km/h 73% 0.00in /  0mm
16:49 27.2 °F /  -2.7 °C 19.4 °F /  -7 °C 30.26in /  1024.6hPa WSW 8.0mph /  12.9km/h 14.0mph /  22.5km/h 72% 0.00in /  0mm
16:54 27.2 °F /  -2.7 °C 19.0 °F /  -7.2 °C 30.26in /  1024.6hPa WSW 14.0mph /  22.5km/h 20.0mph /  32.2km/h 71% 0.00in /  0mm
16:59 27.1 °F /  -2.7 °C 18.6 °F /  -7.4 °C 30.26in /  1024.6hPa WSW 10.0mph /  16.1km/h 17.0mph /  27.4km/h 70% 0.00in /  0mm
17:04 27.0 °F /  -2.8 °C 18.5 °F /  -7.5 °C 30.26in /  1024.6hPa SW 3.0mph /  4.8km/h 20.0mph /  32.2km/h 70% 0.00in /  0mm
17:09 27.0 °F /  -2.8 °C 18.8 °F /  -7.3 °C 30.26in /  1024.6hPa WSW 8.0mph /  12.9km/h 20.0mph /  32.2km/h 71% 0.00in /  0mm
17:14 27.0 °F /  -2.8 °C 18.8 °F /  -7.3 °C 30.26in /  1024.6hPa WSW 7.0mph /  11.3km/h 14.0mph /  22.5km/h 71% 0.00in /  0mm
17:19 27.0 °F /  -2.8 °C 18.5 °F /  -7.5 °C 30.26in /  1024.6hPa WSW 16.0mph /  25.7km/h 22.0mph /  35.4km/h 70% 0.00in /  0mm
17:24 27.0 °F /  -2.8 °C 18.5 °F /  -7.5 °C 30.26in /  1024.6hPa WSW 12.0mph /  19.3km/h 20.0mph /  32.2km/h 70% 0.00in /  0mm
17:29 26.9 °F /  -2.8 °C 18.4 °F /  -7.6 °C 30.26in /  1024.6hPa West 15.0mph /  24.1km/h 21.0mph /  33.8km/h 70% 0.00in /  0mm
17:34 26.8 °F /  -2.9 °C 18.0 °F /  -7.8 °C 30.25in /  1024.3hPa South 6.0mph /  9.7km/h 17.0mph /  27.4km/h 69% 0.00in /  0mm
17:39 26.7 °F /  -2.9 °C 17.9 °F /  -7.8 °C 30.25in /  1024.3hPa WSW 7.0mph /  11.3km/h 13.0mph /  20.9km/h 69% 0.00in /  0mm
17:44 26.5 °F /  -3.1 °C 17.7 °F /  -7.9 °C 30.26in /  1024.6hPa WSW 7.0mph /  11.3km/h 13.0mph /  20.9km/h 69% 0.00in /  0mm
17:49 26.5 °F /  -3.1 °C 17.7 °F /  -7.9 °C 30.26in /  1024.6hPa WSW 7.0mph /  11.3km/h 17.0mph /  27.4km/h 69% 0.00in /  0mm
17:54 26.4 °F /  -3.1 °C 17.6 °F /  -8 °C 30.25in /  1024.3hPa WSW 7.0mph /  11.3km/h 17.0mph /  27.4km/h 69% 0.00in /  0mm
17:59 26.5 °F /  -3.1 °C 17.0 °F /  -8.3 °C 30.25in /  1024.3hPa WSW 8.0mph /  12.9km/h 15.0mph /  24.1km/h 67% 0.00in /  0mm
18:04 26.6 °F /  -3 °C 17.5 °F /  -8.1 °C 30.25in /  1024.3hPa West 6.0mph /  9.7km/h 18.0mph /  29km/h 68% 0.00in /  0mm
18:09 26.6 °F /  -3 °C 17.5 °F /  -8.1 °C 30.25in /  1024.3hPa SSW 6.0mph /  9.7km/h 18.0mph /  29km/h 68% 0.00in /  0mm
18:14 26.7 °F /  -2.9 °C 17.2 °F /  -8.2 °C 30.25in /  1024.3hPa WSW 9.0mph /  14.5km/h 18.0mph /  29km/h 67% 0.00in /  0mm
18:19 26.8 °F /  -2.9 °C 15.9 °F /  -8.9 °C 30.25in /  1024.3hPa WSW 9.0mph /  14.5km/h 17.0mph /  27.4km/h 63% 0.00in /  0mm
18:24 26.8 °F /  -2.9 °C 15.9 °F /  -8.9 °C 30.25in /  1024.3hPa West 5.0mph /  8km/h 13.0mph /  20.9km/h 63% 0.00in /  0mm
18:29 26.7 °F /  -2.9 °C 15.8 °F /  -9 °C 30.25in /  1024.3hPa WSW 7.0mph /  11.3km/h 16.0mph /  25.7km/h 63% 0.00in /  0mm
18:34 26.8 °F /  -2.9 °C 15.9 °F /  -8.9 °C 30.25in /  1024.3hPa WNW 5.0mph /  8km/h 12.0mph /  19.3km/h 63% 0.00in /  0mm
18:39 26.9 °F /  -2.8 °C 16.3 °F /  -8.7 °C 30.24in /  1023.9hPa WSW 7.0mph /  11.3km/h 10.0mph /  16.1km/h 64% 0.00in /  0mm
18:44 26.9 °F /  -2.8 °C 16.3 °F /  -8.7 °C 30.24in /  1023.9hPa WSW 9.0mph /  14.5km/h 13.0mph /  20.9km/h 64% 0.00in /  0mm
18:49 27.0 °F /  -2.8 °C 16.4 °F /  -8.7 °C 30.24in /  1023.9hPa WSW 6.0mph /  9.7km/h 13.0mph /  20.9km/h 64% 0.00in /  0mm
18:54 27.2 °F /  -2.7 °C 16.6 °F /  -8.6 °C 30.23in /  1023.6hPa WSW 8.0mph /  12.9km/h 16.0mph /  25.7km/h 64% 0.00in /  0mm
18:59 27.4 °F /  -2.6 °C 16.8 °F /  -8.4 °C 30.23in /  1023.6hPa WSW 8.0mph /  12.9km/h 16.0mph /  25.7km/h 64% 0.00in /  0mm
19:04 27.3 °F /  -2.6 °C 17.1 °F /  -8.3 °C 30.23in /  1023.6hPa SW 6.0mph /  9.7km/h 15.0mph /  24.1km/h 65% 0.00in /  0mm
19:09 26.5 °F /  -3.1 °C 17.4 °F /  -8.1 °C 30.22in /  1023.2hPa SSW 5.0mph /  8km/h 15.0mph /  24.1km/h 68% 0.00in /  0mm
19:14 25.9 °F /  -3.4 °C 17.5 °F /  -8.1 °C 30.22in /  1023.2hPa South 4.0mph /  6.4km/h 8.0mph /  12.9km/h 70% 0.00in /  0mm
19:19 25.8 °F /  -3.4 °C 17.4 °F /  -8.1 °C 30.22in /  1023.2hPa SSW 3.0mph /  4.8km/h 9.0mph /  14.5km/h 70% 0.00in /  0mm
19:24 25.7 °F /  -3.5 °C 17.3 °F /  -8.2 °C 30.22in /  1023.2hPa South 6.0mph /  9.7km/h 9.0mph /  14.5km/h 70% 0.00in /  0mm
19:29 25.6 °F /  -3.6 °C 17.2 °F /  -8.2 °C 30.21in /  1022.9hPa SSW 4.0mph /  6.4km/h 8.0mph /  12.9km/h 70% 0.00in /  0mm
19:34 25.4 °F /  -3.7 °C 17.0 °F /  -8.3 °C 30.21in /  1022.9hPa South 5.0mph /  8km/h 9.0mph /  14.5km/h 70% 0.00in /  0mm
19:39 25.1 °F /  -3.8 °C 16.7 °F /  -8.5 °C 30.21in /  1022.9hPa South 3.0mph /  4.8km/h 6.0mph /  9.7km/h 70% 0.00in /  0mm
19:44 25.0 °F /  -3.9 °C 16.6 °F /  -8.6 °C 30.20in /  1022.6hPa SSW 3.0mph /  4.8km/h 7.0mph /  11.3km/h 70% 0.00in /  0mm
19:49 24.8 °F /  -4 °C 16.4 °F /  -8.7 °C 30.20in /  1022.6hPa South 4.0mph /  6.4km/h 8.0mph /  12.9km/h 70% 0.00in /  0mm
19:54 24.7 °F /  -4.1 °C 16.0 °F /  -8.9 °C 30.21in /  1022.9hPa SSW 4.0mph /  6.4km/h 9.0mph /  14.5km/h 69% 0.00in /  0mm
19:59 24.8 °F /  -4 °C 16.1 °F /  -8.8 °C 30.20in /  1022.6hPa SSW 4.0mph /  6.4km/h 9.0mph /  14.5km/h 69% 0.00in /  0mm
20:04 24.7 °F /  -4.1 °C 16.0 °F /  -8.9 °C 30.20in /  1022.6hPa SSW 4.0mph /  6.4km/h 10.0mph /  16.1km/h 69% 0.00in /  0mm
20:09 24.6 °F /  -4.1 °C 15.9 °F /  -8.9 °C 30.20in /  1022.6hPa South 4.0mph /  6.4km/h 10.0mph /  16.1km/h 69% 0.00in /  0mm
20:14 24.4 °F /  -4.2 °C 15.7 °F /  -9.1 °C 30.19in /  1022.2hPa South 3.0mph /  4.8km/h 7.0mph /  11.3km/h 69% 0.00in /  0mm
20:19 24.2 °F /  -4.3 °C 15.5 °F /  -9.2 °C 30.19in /  1022.2hPa SSW 3.0mph /  4.8km/h 6.0mph /  9.7km/h 69% 0.00in /  0mm
20:24 24.1 °F /  -4.4 °C 15.1 °F /  -9.4 °C 30.19in /  1022.2hPa South 3.0mph /  4.8km/h 7.0mph /  11.3km/h 68% 0.00in /  0mm
20:29 24.0 °F /  -4.4 °C 15.0 °F /  -9.4 °C 30.19in /  1022.2hPa SSW 3.0mph /  4.8km/h 5.0mph /  8km/h 68% 0.00in /  0mm
20:34 24.0 °F /  -4.4 °C 15.0 °F /  -9.4 °C 30.19in /  1022.2hPa SSW 5.0mph /  8km/h 7.0mph /  11.3km/h 68% 0.00in /  0mm
20:39 24.0 °F /  -4.4 °C 14.3 °F /  -9.8 °C 30.20in /  1022.6hPa South 3.0mph /  4.8km/h 6.0mph /  9.7km/h 66% 0.00in /  0mm
20:44 24.2 °F /  -4.3 °C 14.1 °F /  -9.9 °C 30.19in /  1022.2hPa SSW 3.0mph /  4.8km/h 6.0mph /  9.7km/h 65% 0.00in /  0mm
20:49 24.3 °F /  -4.3 °C 13.9 °F /  -10.1 °C 30.19in /  1022.2hPa SW 3.0mph /  4.8km/h 7.0mph /  11.3km/h 64% 0.00in /  0mm
20:54 24.4 °F /  -4.2 °C 14.0 °F /  -10 °C 30.19in /  1022.2hPa SSW 3.0mph /  4.8km/h 7.0mph /  11.3km/h 64% 0.00in /  0mm
20:59 24.3 °F /  -4.3 °C 13.5 °F /  -10.3 °C 30.19in /  1022.2hPa SSW 3.0mph /  4.8km/h 6.0mph /  9.7km/h 63% 0.00in /  0mm
21:04 24.2 °F /  -4.3 °C 13.4 °F /  -10.3 °C 30.19in /  1022.2hPa SSW 3.0mph /  4.8km/h 5.0mph /  8km/h 63% 0.00in /  0mm
21:09 24.1 °F /  -4.4 °C 12.9 °F /  -10.6 °C 30.18in /  1021.9hPa SSW 3.0mph /  4.8km/h 5.0mph /  8km/h 62% 0.00in /  0mm
21:14 24.1 °F /  -4.4 °C 12.9 °F /  -10.6 °C 30.18in /  1021.9hPa SSW 3.0mph /  4.8km/h 5.0mph /  8km/h 62% 0.00in /  0mm
21:19 24.0 °F /  -4.4 °C 12.9 °F /  -10.6 °C 30.18in /  1021.9hPa SSW 2.0mph /  3.2km/h 5.0mph /  8km/h 62% 0.00in /  0mm
21:24 24.0 °F /  -4.4 °C 12.9 °F /  -10.6 °C 30.18in /  1021.9hPa SSW 2.0mph /  3.2km/h 5.0mph /  8km/h 62% 0.00in /  0mm
21:29 24.0 °F /  -4.4 °C 12.5 °F /  -10.8 °C 30.18in /  1021.9hPa SSW 4.0mph /  6.4km/h 6.0mph /  9.7km/h 61% 0.00in /  0mm
21:34 24.0 °F /  -4.4 °C 12.5 °F /  -10.8 °C 30.18in /  1021.9hPa SSW 4.0mph /  6.4km/h 6.0mph /  9.7km/h 61% 0.00in /  0mm
21:39 24.1 °F /  -4.4 °C 12.2 °F /  -11 °C 30.18in /  1021.9hPa South 4.0mph /  6.4km/h 8.0mph /  12.9km/h 60% 0.00in /  0mm
21:44 24.2 °F /  -4.3 °C 12.3 °F /  -10.9 °C 30.18in /  1021.9hPa SSW 5.0mph /  8km/h 7.0mph /  11.3km/h 60% 0.00in /  0mm
21:49 24.2 °F /  -4.3 °C 11.9 °F /  -11.2 °C 30.17in /  1021.6hPa South 4.0mph /  6.4km/h 7.0mph /  11.3km/h 59% 0.00in /  0mm
21:54 24.1 °F /  -4.4 °C 12.2 °F /  -11 °C 30.17in /  1021.6hPa South 2.0mph /  3.2km/h 6.0mph /  9.7km/h 60% 0.00in /  0mm
21:59 24.1 °F /  -4.4 °C 12.2 °F /  -11 °C 30.17in /  1021.6hPa SSW 3.0mph /  4.8km/h 7.0mph /  11.3km/h 60% 0.00in /  0mm
22:09 24.1 °F /  -4.4 °C 12.2 °F /  -11 °C 30.16in /  1021.2hPa SSW 4.0mph /  6.4km/h 7.0mph /  11.3km/h 60% 0.00in /  0mm
22:14 24.0 °F /  -4.4 °C 12.1 °F /  -11.1 °C 30.16in /  1021.2hPa SSW 3.0mph /  4.8km/h 7.0mph /  11.3km/h 60% 0.00in /  0mm
22:19 24.0 °F /  -4.4 °C 12.1 °F /  -11.1 °C 30.16in /  1021.2hPa SSW 4.0mph /  6.4km/h 8.0mph /  12.9km/h 60% 0.00in /  0mm
22:24 24.0 °F /  -4.4 °C 12.1 °F /  -11.1 °C 30.16in /  1021.2hPa SSW 4.0mph /  6.4km/h 8.0mph /  12.9km/h 60% 0.00in /  0mm
22:29 24.0 °F /  -4.4 °C 12.1 °F /  -11.1 °C 30.16in /  1021.2hPa SSW 3.0mph /  4.8km/h 8.0mph /  12.9km/h 60% 0.00in /  0mm
22:34 24.0 °F /  -4.4 °C 12.1 °F /  -11.1 °C 30.16in /  1021.2hPa South 4.0mph /  6.4km/h 6.0mph /  9.7km/h 60% 0.00in /  0mm
22:39 24.0 °F /  -4.4 °C 11.7 °F /  -11.3 °C 30.16in /  1021.2hPa South 3.0mph /  4.8km/h 7.0mph /  11.3km/h 59% 0.00in /  0mm
22:44 24.0 °F /  -4.4 °C 12.1 °F /  -11.1 °C 30.15in /  1020.9hPa South 4.0mph /  6.4km/h 6.0mph /  9.7km/h 60% 0.00in /  0mm
22:49 24.0 °F /  -4.4 °C 12.1 °F /  -11.1 °C 30.15in /  1020.9hPa SSE 3.0mph /  4.8km/h 6.0mph /  9.7km/h 60% 0.00in /  0mm
22:54 24.1 °F /  -4.4 °C 11.8 °F /  -11.2 °C 30.15in /  1020.9hPa South 4.0mph /  6.4km/h 7.0mph /  11.3km/h 59% 0.00in /  0mm
22:59 24.3 °F /  -4.3 °C 12.0 °F /  -11.1 °C 30.15in /  1020.9hPa SSW 4.0mph /  6.4km/h 7.0mph /  11.3km/h 59% 0.00in /  0mm
23:04 24.6 °F /  -4.1 °C 12.3 °F /  -10.9 °C 30.15in /  1020.9hPa SSW 4.0mph /  6.4km/h 8.0mph /  12.9km/h 59% 0.00in /  0mm
23:09 24.8 °F /  -4 °C 12.1 °F /  -11.1 °C 30.14in /  1020.5hPa SSW 3.0mph /  4.8km/h 8.0mph /  12.9km/h 58% 0.00in /  0mm
23:14 24.8 °F /  -4 °C 12.1 °F /  -11.1 °C 30.14in /  1020.5hPa SSW 3.0mph /  4.8km/h 6.0mph /  9.7km/h 58% 0.00in /  0mm
23:19 24.9 °F /  -3.9 °C 12.2 °F /  -11 °C 30.14in /  1020.5hPa South 3.0mph /  4.8km/h 6.0mph /  9.7km/h 58% 0.00in /  0mm
23:24 25.1 °F /  -3.8 °C 12.0 °F /  -11.1 °C 30.13in /  1020.2hPa SSW 3.0mph /  4.8km/h 6.0mph /  9.7km/h 57% 0.00in /  0mm
23:29 25.1 °F /  -3.8 °C 12.0 °F /  -11.1 °C 30.13in /  1020.2hPa SSW 3.0mph /  4.8km/h 7.0mph /  11.3km/h 57% 0.00in /  0mm
23:34 25.3 °F /  -3.7 °C 11.8 °F /  -11.2 °C 30.13in /  1020.2hPa SSW 3.0mph /  4.8km/h 7.0mph /  11.3km/h 56% 0.00in /  0mm
23:44 25.3 °F /  -3.7 °C 11.8 °F /  -11.2 °C 30.12in /  1019.9hPa SSW 2.0mph /  3.2km/h 5.0mph /  8km/h 56% 0.00in /  0mm
23:49 25.3 °F /  -3.7 °C 11.8 °F /  -11.2 °C 30.12in /  1019.9hPa SSW 2.0mph /  3.2km/h 5.0mph /  8km/h 56% 0.00in /  0mm
23:54 25.3 °F /  -3.7 °C 11.8 °F /  -11.2 °C 30.11in /  1019.5hPa SSW 2.0mph /  3.2km/h 7.0mph /  11.3km/h 56% 0.00in /  0mm
23:59 25.4 °F /  -3.7 °C 12.3 °F /  -10.9 °C 30.11in /  1019.5hPa SW 2.0mph /  3.2km/h 4.0mph /  6.4km/h 57% 0.00in /  0mm
Buffalo, New York, USA
Compliments of Weather Underground - 2.5 mb